sensor_id;sensor_type;location;lat;lon;timestamp;P1;durP1;ratioP1;P2;durP2;ratioP2
7033;SDS011;3558;53.176;10.412;2023-11-18T03:46:56;2.50;;;1.85;;
7033;SDS011;3558;53.176;10.412;2023-11-18T03:49:21;2.40;;;1.90;;
7033;SDS011;3558;53.176;10.412;2023-11-18T03:51:46;2.28;;;1.70;;
7033;SDS011;3558;53.176;10.412;2023-11-18T03:54:12;1.90;;;1.70;;
7033;SDS011;3558;53.176;10.412;2023-11-18T03:56:38;2.10;;;1.77;;
7033;SDS011;3558;53.176;10.412;2023-11-18T03:59:04;2.42;;;2.00;;
7033;SDS011;3558;53.176;10.412;2023-11-18T04:01:30;2.30;;;1.88;;
7033;SDS011;3558;53.176;10.412;2023-11-18T04:03:55;2.13;;;1.80;;
7033;SDS011;3558;53.176;10.412;2023-11-18T04:06:21;2.20;;;1.80;;
7033;SDS011;3558;53.176;10.412;2023-11-18T04:08:47;2.17;;;1.80;;
7033;SDS011;3558;53.176;10.412;2023-11-18T04:11:13;2.50;;;2.05;;
7033;SDS011;3558;53.176;10.412;2023-11-18T04:13:42;2.10;;;1.90;;
7033;SDS011;3558;53.176;10.412;2023-11-18T04:16:12;2.22;;;1.83;;
7033;SDS011;3558;53.176;10.412;2023-11-18T04:18:38;2.22;;;1.98;;
7033;SDS011;3558;53.176;10.412;2023-11-18T04:21:05;2.30;;;2.08;;
7033;SDS011;3558;53.176;10.412;2023-11-18T04:23:31;2.30;;;2.03;;
7033;SDS011;3558;53.176;10.412;2023-11-18T04:25:57;2.42;;;1.90;;
7033;SDS011;3558;53.176;10.412;2023-11-18T04:28:23;2.00;;;1.80;;
7033;SDS011;3558;53.176;10.412;2023-11-18T04:30:49;2.90;;;1.80;;
7033;SDS011;3558;53.176;10.412;2023-11-18T04:33:14;2.20;;;2.00;;
7033;SDS011;3558;53.176;10.412;2023-11-18T04:35:40;2.53;;;2.22;;
7033;SDS011;3558;53.176;10.412;2023-11-18T04:38:05;2.40;;;2.20;;
7033;SDS011;3558;53.176;10.412;2023-11-18T04:40:31;2.80;;;2.07;;
7033;SDS011;3558;53.176;10.412;2023-11-18T04:42:56;2.70;;;2.17;;
7033;SDS011;3558;53.176;10.412;2023-11-18T04:45:22;2.40;;;2.10;;
7033;SDS011;3558;53.176;10.412;2023-11-18T04:47:47;2.70;;;2.03;;
7033;SDS011;3558;53.176;10.412;2023-11-18T04:50:14;3.30;;;2.30;;
7033;SDS011;3558;53.176;10.412;2023-11-18T04:52:40;2.15;;;1.90;;
7033;SDS011;3558;53.176;10.412;2023-11-18T04:55:06;2.50;;;2.00;;
7033;SDS011;3558;53.176;10.412;2023-11-18T04:57:34;3.15;;;1.92;;
7033;SDS011;3558;53.176;10.412;2023-11-18T04:59:59;2.57;;;2.20;;
7033;SDS011;3558;53.176;10.412;2023-11-18T05:02:35;2.65;;;2.42;;
7033;SDS011;3558;53.176;10.412;2023-11-18T05:05:00;2.27;;;1.93;;
7033;SDS011;3558;53.176;10.412;2023-11-18T05:07:25;2.53;;;2.00;;
7033;SDS011;3558;53.176;10.412;2023-11-18T05:09:53;2.45;;;2.10;;
7033;SDS011;3558;53.176;10.412;2023-11-18T05:12:19;2.40;;;2.13;;
7033;SDS011;3558;53.176;10.412;2023-11-18T05:14:44;2.70;;;2.23;;
7033;SDS011;3558;53.176;10.412;2023-11-18T05:17:10;2.87;;;2.03;;
7033;SDS011;3558;53.176;10.412;2023-11-18T05:19:35;2.22;;;2.00;;
7033;SDS011;3558;53.176;10.412;2023-11-18T05:22:01;2.45;;;2.00;;
7033;SDS011;3558;53.176;10.412;2023-11-18T05:24:26;2.27;;;1.97;;
7033;SDS011;3558;53.176;10.412;2023-11-18T05:26:52;2.30;;;2.00;;
7033;SDS011;3558;53.176;10.412;2023-11-18T05:29:17;2.60;;;2.00;;
7033;SDS011;3558;53.176;10.412;2023-11-18T05:31:43;2.30;;;1.80;;
7033;SDS011;3558;53.176;10.412;2023-11-18T05:34:09;2.50;;;1.90;;
7033;SDS011;3558;53.176;10.412;2023-11-18T05:36:35;2.72;;;2.20;;
7033;SDS011;3558;53.176;10.412;2023-11-18T05:39:02;2.95;;;1.92;;
7033;SDS011;3558;53.176;10.412;2023-11-18T05:41:29;2.58;;;1.95;;
7033;SDS011;3558;53.176;10.412;2023-11-18T05:43:56;2.38;;;1.90;;
7033;SDS011;3558;53.176;10.412;2023-11-18T05:46:23;2.63;;;2.08;;
7033;SDS011;3558;53.176;10.412;2023-11-18T05:48:50;2.40;;;2.00;;
7033;SDS011;3558;53.176;10.412;2023-11-18T05:51:23;2.42;;;2.10;;
7033;SDS011;3558;53.176;10.412;2023-11-18T05:53:50;2.20;;;1.90;;
7033;SDS011;3558;53.176;10.412;2023-11-18T05:56:16;2.40;;;2.00;;
7033;SDS011;3558;53.176;10.412;2023-11-18T05:58:44;2.13;;;1.80;;
7033;SDS011;3558;53.176;10.412;2023-11-18T06:01:10;2.45;;;2.20;;
7033;SDS011;3558;53.176;10.412;2023-11-18T06:03:37;2.67;;;2.00;;
7033;SDS011;3558;53.176;10.412;2023-11-18T06:06:07;2.78;;;1.90;;
7033;SDS011;3558;53.176;10.412;2023-11-18T06:08:34;2.70;;;2.00;;
7033;SDS011;3558;53.176;10.412;2023-11-18T06:10:59;2.50;;;2.10;;
7033;SDS011;3558;53.176;10.412;2023-11-18T06:13:30;2.42;;;2.15;;
7033;SDS011;3558;53.176;10.412;2023-11-18T06:15:55;2.63;;;2.10;;
7033;SDS011;3558;53.176;10.412;2023-11-18T06:18:21;2.60;;;2.00;;
7033;SDS011;3558;53.176;10.412;2023-11-18T06:20:47;2.63;;;2.10;;
7033;SDS011;3558;53.176;10.412;2023-11-18T06:23:13;2.97;;;2.17;;
7033;SDS011;3558;53.176;10.412;2023-11-18T06:25:43;2.53;;;2.05;;
7033;SDS011;3558;53.176;10.412;2023-11-18T06:28:10;2.35;;;1.92;;
7033;SDS011;3558;53.176;10.412;2023-11-18T06:30:36;2.47;;;2.07;;
7033;SDS011;3558;53.176;10.412;2023-11-18T06:33:01;3.10;;;2.13;;
7033;SDS011;3558;53.176;10.412;2023-11-18T06:35:29;2.95;;;2.25;;
7033;SDS011;3558;53.176;10.412;2023-11-18T06:37:54;2.50;;;2.00;;
7033;SDS011;3558;53.176;10.412;2023-11-18T06:40:20;2.67;;;1.97;;
7033;SDS011;3558;53.176;10.412;2023-11-18T06:42:47;2.70;;;2.10;;
7033;SDS011;3558;53.176;10.412;2023-11-18T06:45:13;2.40;;;2.00;;
7033;SDS011;3558;53.176;10.412;2023-11-18T06:47:39;2.35;;;2.15;;
7033;SDS011;3558;53.176;10.412;2023-11-18T06:50:09;2.90;;;2.10;;
7033;SDS011;3558;53.176;10.412;2023-11-18T06:52:39;2.45;;;2.17;;
7033;SDS011;3558;53.176;10.412;2023-11-18T06:55:06;3.80;;;2.20;;
7033;SDS011;3558;53.176;10.412;2023-11-18T06:57:32;2.92;;;2.20;;
7033;SDS011;3558;53.176;10.412;2023-11-18T06:59:58;2.67;;;2.20;;
7033;SDS011;3558;53.176;10.412;2023-11-18T07:02:23;2.60;;;2.30;;
7033;SDS011;3558;53.176;10.412;2023-11-18T07:04:49;3.17;;;2.20;;
7033;SDS011;3558;53.176;10.412;2023-11-18T07:07:14;3.10;;;2.47;;
7033;SDS011;3558;53.176;10.412;2023-11-18T07:09:40;3.05;;;2.50;;
7033;SDS011;3558;53.176;10.412;2023-11-18T07:12:05;3.30;;;2.70;;
7033;SDS011;3558;53.176;10.412;2023-11-18T07:14:31;3.33;;;2.75;;
7033;SDS011;3558;53.176;10.412;2023-11-18T07:16:56;4.97;;;3.30;;
7033;SDS011;3558;53.176;10.412;2023-11-18T07:19:22;4.07;;;3.10;;
7033;SDS011;3558;53.176;10.412;2023-11-18T07:21:48;4.72;;;3.30;;
7033;SDS011;3558;53.176;10.412;2023-11-18T07:24:14;4.00;;;3.38;;
7033;SDS011;3558;53.176;10.412;2023-11-18T07:26:40;4.47;;;3.53;;
7033;SDS011;3558;53.176;10.412;2023-11-18T07:29:05;5.00;;;3.53;;
7033;SDS011;3558;53.176;10.412;2023-11-18T07:31:34;4.33;;;3.60;;
7033;SDS011;3558;53.176;10.412;2023-11-18T07:34:01;4.50;;;3.50;;
7033;SDS011;3558;53.176;10.412;2023-11-18T07:36:27;4.15;;;3.38;;
7033;SDS011;3558;53.176;10.412;2023-11-18T07:38:53;4.05;;;3.00;;
7033;SDS011;3558;53.176;10.412;2023-11-18T07:41:20;3.60;;;2.95;;
7033;SDS011;3558;53.176;10.412;2023-11-18T07:43:52;4.45;;;3.30;;
7033;SDS011;3558;53.176;10.412;2023-11-18T07:46:19;4.55;;;3.28;;
7033;SDS011;3558;53.176;10.412;2023-11-18T07:48:47;3.90;;;3.00;;
7033;SDS011;3558;53.176;10.412;2023-11-18T07:51:14;3.53;;;3.20;;
7033;SDS011;3558;53.176;10.412;2023-11-18T07:53:39;3.58;;;3.05;;
7033;SDS011;3558;53.176;10.412;2023-11-18T07:56:05;3.37;;;2.70;;
7033;SDS011;3558;53.176;10.412;2023-11-18T07:58:32;4.50;;;2.70;;
7033;SDS011;3558;53.176;10.412;2023-11-18T08:01:02;5.20;;;3.17;;
7033;SDS011;3558;53.176;10.412;2023-11-18T08:03:29;3.87;;;3.20;;
7033;SDS011;3558;53.176;10.412;2023-11-18T08:05:56;3.10;;;2.72;;
7033;SDS011;3558;53.176;10.412;2023-11-18T08:08:23;3.28;;;2.83;;
7033;SDS011;3558;53.176;10.412;2023-11-18T08:10:48;3.50;;;2.80;;
7033;SDS011;3558;53.176;10.412;2023-11-18T08:13:15;4.40;;;2.92;;
7033;SDS011;3558;53.176;10.412;2023-11-18T08:15:41;3.90;;;2.88;;
7033;SDS011;3558;53.176;10.412;2023-11-18T08:18:07;4.47;;;2.92;;
7033;SDS011;3558;53.176;10.412;2023-11-18T08:20:35;3.50;;;2.80;;
7033;SDS011;3558;53.176;10.412;2023-11-18T08:23:00;3.92;;;2.80;;
7033;SDS011;3558;53.176;10.412;2023-11-18T08:25:26;3.93;;;2.90;;
7033;SDS011;3558;53.176;10.412;2023-11-18T08:27:51;3.67;;;3.00;;
7033;SDS011;3558;53.176;10.412;2023-11-18T08:30:17;3.50;;;2.80;;
7033;SDS011;3558;53.176;10.412;2023-11-18T08:32:43;4.03;;;3.28;;
7033;SDS011;3558;53.176;10.412;2023-11-18T08:35:10;4.10;;;3.00;;
7033;SDS011;3558;53.176;10.412;2023-11-18T08:37:39;3.63;;;3.17;;
7033;SDS011;3558;53.176;10.412;2023-11-18T08:40:06;3.73;;;3.20;;
7033;SDS011;3558;53.176;10.412;2023-11-18T08:42:47;3.90;;;3.22;;
7033;SDS011;3558;53.176;10.412;2023-11-18T08:45:18;4.28;;;3.08;;
7033;SDS011;3558;53.176;10.412;2023-11-18T08:47:52;3.97;;;3.10;;
7033;SDS011;3558;53.176;10.412;2023-11-18T08:50:18;3.30;;;2.67;;
7033;SDS011;3558;53.176;10.412;2023-11-18T08:52:44;3.60;;;3.00;;
7033;SDS011;3558;53.176;10.412;2023-11-18T08:55:12;4.40;;;3.33;;
7033;SDS011;3558;53.176;10.412;2023-11-18T08:58:13;4.18;;;3.30;;
7033;SDS011;3558;53.176;10.412;2023-11-18T09:00:45;3.83;;;3.22;;
7033;SDS011;3558;53.176;10.412;2023-11-18T09:03:18;5.00;;;3.23;;
7033;SDS011;3558;53.176;10.412;2023-11-18T09:05:53;3.80;;;3.15;;
7033;SDS011;3558;53.176;10.412;2023-11-18T09:08:22;4.05;;;2.90;;
7033;SDS011;3558;53.176;10.412;2023-11-18T09:10:49;4.07;;;2.85;;
7033;SDS011;3558;53.176;10.412;2023-11-18T09:13:18;3.65;;;2.95;;
7033;SDS011;3558;53.176;10.412;2023-11-18T09:15:50;3.90;;;2.95;;
7033;SDS011;3558;53.176;10.412;2023-11-18T09:18:16;4.05;;;2.80;;
7033;SDS011;3558;53.176;10.412;2023-11-18T09:20:43;4.55;;;3.00;;
7033;SDS011;3558;53.176;10.412;2023-11-18T09:23:08;4.18;;;3.22;;
7033;SDS011;3558;53.176;10.412;2023-11-18T09:25:34;4.27;;;3.17;;
7033;SDS011;3558;53.176;10.412;2023-11-18T09:28:01;3.92;;;3.13;;
7033;SDS011;3558;53.176;10.412;2023-11-18T09:30:28;4.30;;;3.70;;
7033;SDS011;3558;53.176;10.412;2023-11-18T09:32:54;4.47;;;3.28;;
7033;SDS011;3558;53.176;10.412;2023-11-18T09:35:20;3.65;;;3.00;;
7033;SDS011;3558;53.176;10.412;2023-11-18T09:37:46;4.57;;;3.23;;
7033;SDS011;3558;53.176;10.412;2023-11-18T09:40:14;4.13;;;3.27;;
7033;SDS011;3558;53.176;10.412;2023-11-18T09:42:42;4.70;;;3.47;;
7033;SDS011;3558;53.176;10.412;2023-11-18T09:45:09;4.10;;;3.42;;
7033;SDS011;3558;53.176;10.412;2023-11-18T09:47:44;4.70;;;2.97;;
7033;SDS011;3558;53.176;10.412;2023-11-18T09:50:12;4.97;;;3.25;;
7033;SDS011;3558;53.176;10.412;2023-11-18T09:52:46;4.97;;;3.30;;
7033;SDS011;3558;53.176;10.412;2023-11-18T09:55:20;5.30;;;3.75;;
7033;SDS011;3558;53.176;10.412;2023-11-18T09:57:52;4.38;;;3.33;;
7033;SDS011;3558;53.176;10.412;2023-11-18T10:00:24;4.78;;;3.38;;
7033;SDS011;3558;53.176;10.412;2023-11-18T10:02:57;3.93;;;3.20;;
7033;SDS011;3558;53.176;10.412;2023-11-18T10:05:25;4.28;;;3.38;;
7033;SDS011;3558;53.176;10.412;2023-11-18T10:07:52;3.95;;;3.08;;
7033;SDS011;3558;53.176;10.412;2023-11-18T10:10:18;4.57;;;3.30;;
7033;SDS011;3558;53.176;10.412;2023-11-18T10:12:49;4.00;;;2.90;;
7033;SDS011;3558;53.176;10.412;2023-11-18T10:15:22;4.10;;;3.05;;
7033;SDS011;3558;53.176;10.412;2023-11-18T10:17:49;3.60;;;2.80;;
7033;SDS011;3558;53.176;10.412;2023-11-18T10:20:42;3.13;;;2.53;;
7033;SDS011;3558;53.176;10.412;2023-11-18T10:23:12;3.95;;;2.83;;
7033;SDS011;3558;53.176;10.412;2023-11-18T10:25:50;3.15;;;2.70;;
7033;SDS011;3558;53.176;10.412;2023-11-18T10:28:24;3.50;;;2.80;;
7033;SDS011;3558;53.176;10.412;2023-11-18T10:30:57;3.72;;;2.53;;
7033;SDS011;3558;53.176;10.412;2023-11-18T10:33:37;3.45;;;2.60;;
7033;SDS011;3558;53.176;10.412;2023-11-18T10:36:06;2.88;;;2.30;;
7033;SDS011;3558;53.176;10.412;2023-11-18T10:38:47;3.03;;;2.20;;
7033;SDS011;3558;53.176;10.412;2023-11-18T10:41:14;2.60;;;2.20;;
7033;SDS011;3558;53.176;10.412;2023-11-18T10:43:41;2.90;;;2.10;;
7033;SDS011;3558;53.176;10.412;2023-11-18T10:46:10;3.27;;;2.27;;
7033;SDS011;3558;53.176;10.412;2023-11-18T10:48:43;2.42;;;2.08;;
7033;SDS011;3558;53.176;10.412;2023-11-18T10:51:12;3.20;;;2.22;;
7033;SDS011;3558;53.176;10.412;2023-11-18T10:53:44;2.40;;;1.70;;
7033;SDS011;3558;53.176;10.412;2023-11-18T10:56:19;2.78;;;1.85;;
7033;SDS011;3558;53.176;10.412;2023-11-18T10:58:51;2.00;;;1.80;;
7033;SDS011;3558;53.176;10.412;2023-11-18T11:01:26;2.13;;;1.70;;
7033;SDS011;3558;53.176;10.412;2023-11-18T11:03:53;2.00;;;1.80;;
7033;SDS011;3558;53.176;10.412;2023-11-18T11:06:25;2.17;;;1.85;;
7033;SDS011;3558;53.176;10.412;2023-11-18T11:08:55;2.00;;;1.70;;
7033;SDS011;3558;53.176;10.412;2023-11-18T11:11:23;1.80;;;1.50;;
7033;SDS011;3558;53.176;10.412;2023-11-18T11:13:56;2.05;;;1.58;;
7033;SDS011;3558;53.176;10.412;2023-11-18T11:16:22;1.95;;;1.40;;
7033;SDS011;3558;53.176;10.412;2023-11-18T11:18:54;2.42;;;1.40;;
7033;SDS011;3558;53.176;10.412;2023-11-18T11:21:22;2.00;;;1.50;;
7033;SDS011;3558;53.176;10.412;2023-11-18T11:23:54;2.33;;;1.48;;
7033;SDS011;3558;53.176;10.412;2023-11-18T11:26:50;2.35;;;1.50;;
7033;SDS011;3558;53.176;10.412;2023-11-18T11:32:07;2.08;;;1.60;;
7033;SDS011;3558;53.176;10.412;2023-11-18T11:34:56;2.20;;;1.77;;
7033;SDS011;3558;53.176;10.412;2023-11-18T11:37:24;2.00;;;1.50;;
7033;SDS011;3558;53.176;10.412;2023-11-18T11:39:53;2.22;;;1.80;;
7033;SDS011;3558;53.176;10.412;2023-11-18T11:42:23;2.10;;;1.60;;
7033;SDS011;3558;53.176;10.412;2023-11-18T11:44:49;2.15;;;1.90;;
7033;SDS011;3558;53.176;10.412;2023-11-18T11:47:18;2.90;;;1.80;;
7033;SDS011;3558;53.176;10.412;2023-11-18T11:49:57;2.30;;;1.80;;
7033;SDS011;3558;53.176;10.412;2023-11-18T11:52:30;1.90;;;1.60;;
7033;SDS011;3558;53.176;10.412;2023-11-18T11:55:00;1.77;;;1.60;;
7033;SDS011;3558;53.176;10.412;2023-11-18T11:57:38;2.20;;;1.70;;
7033;SDS011;3558;53.176;10.412;2023-11-18T12:00:04;1.98;;;1.75;;
7033;SDS011;3558;53.176;10.412;2023-11-18T12:02:40;2.00;;;1.52;;
7033;SDS011;3558;53.176;10.412;2023-11-18T12:05:15;1.80;;;1.52;;
7033;SDS011;3558;53.176;10.412;2023-11-18T12:07:44;2.10;;;1.70;;
7033;SDS011;3558;53.176;10.412;2023-11-18T12:10:11;2.03;;;1.55;;
7033;SDS011;3558;53.176;10.412;2023-11-18T12:12:46;2.33;;;1.77;;
7033;SDS011;3558;53.176;10.412;2023-11-18T12:15:11;2.05;;;1.42;;
7033;SDS011;3558;53.176;10.412;2023-11-18T12:23:18;1.63;;;1.37;;
7033;SDS011;3558;53.176;10.412;2023-11-18T12:25:48;1.58;;;1.40;;
7033;SDS011;3558;53.176;10.412;2023-11-18T12:28:29;1.70;;;1.20;;
7033;SDS011;3558;53.176;10.412;2023-11-18T12:31:00;1.45;;;1.20;;
7033;SDS011;3558;53.176;10.412;2023-11-18T12:39:09;1.75;;;1.20;;
7033;SDS011;3558;53.176;10.412;2023-11-18T12:42:06;1.67;;;1.33;;
7033;SDS011;3558;53.176;10.412;2023-11-18T12:47:20;1.88;;;1.30;;
7033;SDS011;3558;53.176;10.412;2023-11-18T12:49:53;1.43;;;1.30;;
7033;SDS011;3558;53.176;10.412;2023-11-18T12:52:22;2.23;;;1.20;;
7033;SDS011;3558;53.176;10.412;2023-11-18T12:54:48;1.58;;;1.20;;
7033;SDS011;3558;53.176;10.412;2023-11-18T12:57:18;1.55;;;1.30;;
7033;SDS011;3558;53.176;10.412;2023-11-18T12:59:47;1.60;;;1.23;;
7033;SDS011;3558;53.176;10.412;2023-11-18T13:02:14;1.83;;;1.20;;
7033;SDS011;3558;53.176;10.412;2023-11-18T13:04:44;1.52;;;1.20;;
7033;SDS011;3558;53.176;10.412;2023-11-18T13:07:12;1.50;;;1.20;;
7033;SDS011;3558;53.176;10.412;2023-11-18T13:09:39;1.35;;;1.10;;
7033;SDS011;3558;53.176;10.412;2023-11-18T13:12:07;1.50;;;1.20;;
7033;SDS011;3558;53.176;10.412;2023-11-18T13:14:34;1.50;;;1.13;;
7033;SDS011;3558;53.176;10.412;2023-11-18T13:17:04;2.55;;;1.23;;
7033;SDS011;3558;53.176;10.412;2023-11-18T13:19:33;2.60;;;1.50;;
7033;SDS011;3558;53.176;10.412;2023-11-18T13:22:00;2.20;;;1.52;;
7033;SDS011;3558;53.176;10.412;2023-11-18T13:24:33;2.75;;;1.45;;
7033;SDS011;3558;53.176;10.412;2023-11-18T13:27:04;2.15;;;1.60;;
7033;SDS011;3558;53.176;10.412;2023-11-18T13:29:31;2.37;;;1.57;;
7033;SDS011;3558;53.176;10.412;2023-11-18T13:31:57;2.38;;;1.80;;
7033;SDS011;3558;53.176;10.412;2023-11-18T13:34:25;3.05;;;1.95;;
7033;SDS011;3558;53.176;10.412;2023-11-18T13:36:52;2.47;;;1.80;;
7033;SDS011;3558;53.176;10.412;2023-11-18T13:39:18;3.57;;;2.10;;
7033;SDS011;3558;53.176;10.412;2023-11-18T13:41:48;2.67;;;1.95;;
7033;SDS011;3558;53.176;10.412;2023-11-18T13:44:33;3.28;;;2.03;;
7033;SDS011;3558;53.176;10.412;2023-11-18T13:47:06;3.05;;;2.00;;
7033;SDS011;3558;53.176;10.412;2023-11-18T13:49:32;3.10;;;2.00;;
7033;SDS011;3558;53.176;10.412;2023-11-18T13:52:01;3.00;;;2.20;;
7033;SDS011;3558;53.176;10.412;2023-11-18T13:54:28;3.20;;;2.00;;
7033;SDS011;3558;53.176;10.412;2023-11-18T13:56:54;2.78;;;1.90;;
7033;SDS011;3558;53.176;10.412;2023-11-18T13:59:23;2.53;;;1.88;;
7033;SDS011;3558;53.176;10.412;2023-11-18T14:01:53;2.58;;;1.65;;
7033;SDS011;3558;53.176;10.412;2023-11-18T14:04:22;3.05;;;2.00;;
7033;SDS011;3558;53.176;10.412;2023-11-18T14:06:51;2.67;;;1.90;;
7033;SDS011;3558;53.176;10.412;2023-11-18T14:09:18;2.53;;;1.75;;
7033;SDS011;3558;53.176;10.412;2023-11-18T14:11:46;2.58;;;1.77;;
7033;SDS011;3558;53.176;10.412;2023-11-18T14:14:12;2.80;;;1.83;;
7033;SDS011;3558;53.176;10.412;2023-11-18T14:16:37;2.08;;;1.67;;
7033;SDS011;3558;53.176;10.412;2023-11-18T14:19:05;1.90;;;1.60;;
7033;SDS011;3558;53.176;10.412;2023-11-18T14:21:31;1.83;;;1.60;;
7033;SDS011;3558;53.176;10.412;2023-11-18T14:23:57;2.45;;;1.70;;
7033;SDS011;3558;53.176;10.412;2023-11-18T14:26:27;2.10;;;1.60;;
7033;SDS011;3558;53.176;10.412;2023-11-18T14:28:52;2.13;;;1.63;;
7033;SDS011;3558;53.176;10.412;2023-11-18T14:31:18;2.13;;;1.57;;
7033;SDS011;3558;53.176;10.412;2023-11-18T14:33:43;2.00;;;1.60;;
7033;SDS011;3558;53.176;10.412;2023-11-18T14:36:09;2.77;;;1.70;;
7033;SDS011;3558;53.176;10.412;2023-11-18T14:38:36;1.92;;;1.50;;
7033;SDS011;3558;53.176;10.412;2023-11-18T14:41:01;2.50;;;1.83;;
7033;SDS011;3558;53.176;10.412;2023-11-18T14:43:28;2.28;;;1.90;;
7033;SDS011;3558;53.176;10.412;2023-11-18T14:45:54;2.45;;;1.95;;
7033;SDS011;3558;53.176;10.412;2023-11-18T14:48:20;2.17;;;1.80;;
7033;SDS011;3558;53.176;10.412;2023-11-18T14:50:45;3.05;;;2.00;;
7033;SDS011;3558;53.176;10.412;2023-11-18T14:53:11;2.43;;;1.80;;
7033;SDS011;3558;53.176;10.412;2023-11-18T14:55:36;2.33;;;2.00;;
7033;SDS011;3558;53.176;10.412;2023-11-18T14:58:02;2.40;;;2.00;;
7033;SDS011;3558;53.176;10.412;2023-11-18T15:00:29;2.38;;;1.95;;
7033;SDS011;3558;53.176;10.412;2023-11-18T15:02:57;2.30;;;1.80;;
7033;SDS011;3558;53.176;10.412;2023-11-18T15:05:23;2.97;;;1.83;;
7033;SDS011;3558;53.176;10.412;2023-11-18T15:10:19;2.40;;;1.60;;
7033;SDS011;3558;53.176;10.412;2023-11-18T15:12:49;2.58;;;1.80;;
7033;SDS011;3558;53.176;10.412;2023-11-18T15:15:22;2.50;;;1.90;;
7033;SDS011;3558;53.176;10.412;2023-11-18T15:17:59;2.80;;;1.80;;
7033;SDS011;3558;53.176;10.412;2023-11-18T15:20:28;2.05;;;1.77;;
7033;SDS011;3558;53.176;10.412;2023-11-18T15:22:54;2.30;;;1.73;;
7033;SDS011;3558;53.176;10.412;2023-11-18T15:25:19;1.97;;;1.77;;
7033;SDS011;3558;53.176;10.412;2023-11-18T15:27:45;2.67;;;1.80;;
7033;SDS011;3558;53.176;10.412;2023-11-18T15:30:11;2.33;;;1.90;;
7033;SDS011;3558;53.176;10.412;2023-11-18T15:32:38;2.80;;;1.95;;
7033;SDS011;3558;53.176;10.412;2023-11-18T15:35:08;2.17;;;1.65;;
7033;SDS011;3558;53.176;10.412;2023-11-18T15:37:35;2.60;;;1.88;;
7033;SDS011;3558;53.176;10.412;2023-11-18T15:40:03;2.20;;;1.70;;
7033;SDS011;3558;53.176;10.412;2023-11-18T15:42:35;2.90;;;1.83;;
7033;SDS011;3558;53.176;10.412;2023-11-18T15:45:07;1.98;;;1.60;;
7033;SDS011;3558;53.176;10.412;2023-11-18T15:47:33;2.17;;;1.67;;
7033;SDS011;3558;53.176;10.412;2023-11-18T15:50:03;3.03;;;1.60;;
7033;SDS011;3558;53.176;10.412;2023-11-18T15:52:32;2.53;;;1.70;;
7033;SDS011;3558;53.176;10.412;2023-11-18T15:54:59;2.83;;;1.80;;
7033;SDS011;3558;53.176;10.412;2023-11-18T15:57:27;1.90;;;1.60;;
7033;SDS011;3558;53.176;10.412;2023-11-18T15:59:54;2.35;;;1.70;;
7033;SDS011;3558;53.176;10.412;2023-11-18T16:02:19;2.78;;;1.70;;
7033;SDS011;3558;53.176;10.412;2023-11-18T16:04:45;2.40;;;1.80;;
7033;SDS011;3558;53.176;10.412;2023-11-18T16:07:11;2.88;;;1.90;;
7033;SDS011;3558;53.176;10.412;2023-11-18T16:09:36;2.53;;;2.00;;
7033;SDS011;3558;53.176;10.412;2023-11-18T16:12:02;2.27;;;2.00;;
7033;SDS011;3558;53.176;10.412;2023-11-18T16:14:29;2.97;;;2.40;;
7033;SDS011;3558;53.176;10.412;2023-11-18T16:16:54;3.00;;;2.30;;
7033;SDS011;3558;53.176;10.412;2023-11-18T16:19:20;2.63;;;2.15;;
7033;SDS011;3558;53.176;10.412;2023-11-18T16:21:46;2.83;;;2.37;;
7033;SDS011;3558;53.176;10.412;2023-11-18T16:24:12;2.92;;;2.50;;
7033;SDS011;3558;53.176;10.412;2023-11-18T16:26:39;3.40;;;2.70;;
7033;SDS011;3558;53.176;10.412;2023-11-18T16:29:05;3.78;;;2.83;;
7033;SDS011;3558;53.176;10.412;2023-11-18T16:31:31;3.22;;;2.60;;
7033;SDS011;3558;53.176;10.412;2023-11-18T16:33:56;3.17;;;2.80;;
7033;SDS011;3558;53.176;10.412;2023-11-18T16:36:22;3.90;;;3.10;;
7033;SDS011;3558;53.176;10.412;2023-11-18T16:38:48;6.03;;;4.32;;
7033;SDS011;3558;53.176;10.412;2023-11-18T16:41:13;8.57;;;5.53;;
7033;SDS011;3558;53.176;10.412;2023-11-18T16:43:40;7.95;;;5.72;;
7033;SDS011;3558;53.176;10.412;2023-11-18T16:46:05;7.03;;;4.82;;
7033;SDS011;3558;53.176;10.412;2023-11-18T16:48:31;7.77;;;5.27;;
7033;SDS011;3558;53.176;10.412;2023-11-18T16:50:56;6.17;;;4.73;;
7033;SDS011;3558;53.176;10.412;2023-11-18T16:53:22;5.93;;;4.35;;
7033;SDS011;3558;53.176;10.412;2023-11-18T16:55:47;6.40;;;4.72;;
7033;SDS011;3558;53.176;10.412;2023-11-18T16:58:13;6.40;;;4.30;;
7033;SDS011;3558;53.176;10.412;2023-11-18T17:00:38;6.30;;;4.10;;
7033;SDS011;3558;53.176;10.412;2023-11-18T17:03:05;5.90;;;4.10;;
7033;SDS011;3558;53.176;10.412;2023-11-18T17:05:31;5.57;;;4.23;;
7033;SDS011;3558;53.176;10.412;2023-11-18T17:07:56;5.10;;;4.20;;
7033;SDS011;3558;53.176;10.412;2023-11-18T17:10:22;6.00;;;4.30;;
7033;SDS011;3558;53.176;10.412;2023-11-18T17:12:48;5.60;;;3.90;;
7033;SDS011;3558;53.176;10.412;2023-11-18T17:15:13;5.47;;;3.97;;
7033;SDS011;3558;53.176;10.412;2023-11-18T17:17:40;5.43;;;3.90;;
7033;SDS011;3558;53.176;10.412;2023-11-18T17:20:13;6.28;;;4.30;;
7033;SDS011;3558;53.176;10.412;2023-11-18T17:22:39;4.75;;;3.88;;
7033;SDS011;3558;53.176;10.412;2023-11-18T17:25:07;6.78;;;4.20;;
7033;SDS011;3558;53.176;10.412;2023-11-18T17:27:40;5.95;;;4.00;;
7033;SDS011;3558;53.176;10.412;2023-11-18T17:30:08;5.95;;;4.25;;
7033;SDS011;3558;53.176;10.412;2023-11-18T17:32:37;5.20;;;4.22;;
7033;SDS011;3558;53.176;10.412;2023-11-18T17:35:07;5.45;;;4.30;;
7033;SDS011;3558;53.176;10.412;2023-11-18T17:37:38;5.20;;;4.07;;
7033;SDS011;3558;53.176;10.412;2023-11-18T17:40:04;5.97;;;4.45;;
7033;SDS011;3558;53.176;10.412;2023-11-18T17:42:31;6.70;;;4.50;;
7033;SDS011;3558;53.176;10.412;2023-11-18T17:44:56;5.32;;;4.50;;
7033;SDS011;3558;53.176;10.412;2023-11-18T17:47:22;6.22;;;4.60;;
7033;SDS011;3558;53.176;10.412;2023-11-18T17:49:51;5.95;;;4.60;;
7033;SDS011;3558;53.176;10.412;2023-11-18T17:52:19;5.43;;;4.63;;
7033;SDS011;3558;53.176;10.412;2023-11-18T17:54:44;6.67;;;4.33;;
7033;SDS011;3558;53.176;10.412;2023-11-18T17:57:10;7.15;;;4.63;;
7033;SDS011;3558;53.176;10.412;2023-11-18T17:59:35;6.80;;;4.80;;
7033;SDS011;3558;53.176;10.412;2023-11-18T18:02:01;6.63;;;5.10;;
7033;SDS011;3558;53.176;10.412;2023-11-18T18:04:26;6.97;;;5.43;;
7033;SDS011;3558;53.176;10.412;2023-11-18T18:06:52;6.00;;;5.10;;
7033;SDS011;3558;53.176;10.412;2023-11-18T18:09:17;6.73;;;5.40;;
7033;SDS011;3558;53.176;10.412;2023-11-18T18:11:45;6.85;;;5.60;;
7033;SDS011;3558;53.176;10.412;2023-11-18T18:14:10;7.18;;;5.68;;
7033;SDS011;3558;53.176;10.412;2023-11-18T18:16:36;6.55;;;5.50;;
7033;SDS011;3558;53.176;10.412;2023-11-18T18:19:01;6.20;;;5.23;;
7033;SDS011;3558;53.176;10.412;2023-11-18T18:21:27;6.23;;;5.33;;
7033;SDS011;3558;53.176;10.412;2023-11-18T18:23:53;7.65;;;5.75;;
7033;SDS011;3558;53.176;10.412;2023-11-18T18:26:20;8.07;;;6.00;;
7033;SDS011;3558;53.176;10.412;2023-11-18T18:28:46;7.65;;;5.97;;
7033;SDS011;3558;53.176;10.412;2023-11-18T18:31:12;7.18;;;5.78;;
7033;SDS011;3558;53.176;10.412;2023-11-18T18:33:38;7.50;;;5.82;;
7033;SDS011;3558;53.176;10.412;2023-11-18T18:36:04;8.00;;;6.13;;
7033;SDS011;3558;53.176;10.412;2023-11-18T18:38:31;7.03;;;5.73;;
7033;SDS011;3558;53.176;10.412;2023-11-18T18:40:56;7.27;;;5.87;;
7033;SDS011;3558;53.176;10.412;2023-11-18T18:43:21;7.35;;;6.20;;
7033;SDS011;3558;53.176;10.412;2023-11-18T18:45:47;7.30;;;5.95;;
7033;SDS011;3558;53.176;10.412;2023-11-18T18:48:13;6.37;;;5.27;;
7033;SDS011;3558;53.176;10.412;2023-11-18T18:50:38;7.83;;;6.40;;
7033;SDS011;3558;53.176;10.412;2023-11-18T18:53:04;7.93;;;6.45;;
7033;SDS011;3558;53.176;10.412;2023-11-18T18:55:32;8.15;;;6.10;;
7033;SDS011;3558;53.176;10.412;2023-11-18T18:57:57;7.68;;;6.43;;
7033;SDS011;3558;53.176;10.412;2023-11-18T19:00:24;7.13;;;6.13;;
7033;SDS011;3558;53.176;10.412;2023-11-18T19:02:49;8.35;;;6.75;;
7033;SDS011;3558;53.176;10.412;2023-11-18T19:05:15;9.87;;;6.43;;
7033;SDS011;3558;53.176;10.412;2023-11-18T19:07:47;7.90;;;6.38;;
7033;SDS011;3558;53.176;10.412;2023-11-18T19:10:13;8.40;;;6.20;;